createdAt,value
2022-09-01T00:00:02.443Z,16.69
2022-09-01T00:02:31.643Z,16.67
2022-09-01T00:04:59.911Z,16.60
2022-09-01T00:07:30.201Z,16.59
2022-09-01T00:10:00.215Z,16.51
2022-09-01T00:12:29.086Z,16.49
2022-09-01T00:14:58.988Z,16.45
2022-09-01T00:17:27.793Z,16.50
2022-09-01T00:19:55.969Z,16.42
2022-09-01T00:22:23.963Z,16.41
2022-09-01T00:24:51.989Z,16.45
2022-09-01T00:27:21.369Z,16.33
2022-09-01T00:29:56.523Z,16.36
2022-09-01T00:32:25.352Z,16.38
2022-09-01T00:34:54.001Z,16.23
2022-09-01T00:37:22.091Z,16.31
2022-09-01T00:39:50.040Z,16.35
2022-09-01T00:42:18.335Z,16.27
2022-09-01T00:44:47.736Z,16.23
2022-09-01T00:47:17.867Z,16.26
2022-09-01T00:49:49.936Z,16.33
2022-09-01T00:52:23.220Z,16.34
2022-09-01T00:54:56.422Z,16.18
2022-09-01T00:57:25.196Z,16.23
2022-09-01T00:59:58.278Z,16.36
2022-09-01T01:02:26.716Z,16.22
2022-09-01T01:05:03.741Z,16.27
2022-09-01T01:07:49.236Z,16.33
2022-09-01T01:10:20.270Z,16.27
2022-09-01T01:12:51.888Z,16.25
2022-09-01T01:15:21.739Z,16.17
2022-09-01T01:17:49.622Z,16.17
2022-09-01T01:20:37.521Z,16.10
2022-09-01T01:23:16.673Z,16.04
2022-09-01T01:25:50.396Z,16.02
2022-09-01T01:28:22.251Z,16.06
2022-09-01T01:30:57.284Z,16.11
2022-09-01T01:33:29.823Z,16.06
2022-09-01T01:35:58.234Z,16.19
2022-09-01T01:38:27.529Z,16.27
2022-09-01T01:40:57.027Z,16.25
2022-09-01T01:43:26.403Z,16.19
2022-09-01T01:45:59.176Z,16.22
2022-09-01T01:48:28.224Z,16.08
2022-09-01T01:51:00.783Z,16.06
2022-09-01T01:53:29.575Z,15.96
2022-09-01T01:56:01.098Z,15.95
2022-09-01T01:58:30.808Z,15.97
2022-09-01T02:00:59.311Z,15.88
2022-09-01T02:03:30.765Z,15.76
2022-09-01T02:06:07.757Z,15.81
2022-09-01T02:08:36.811Z,15.76
2022-09-01T02:11:07.950Z,15.86
2022-09-01T02:13:36.026Z,16.01
2022-09-01T02:16:07.562Z,16.00
2022-09-01T02:18:37.951Z,16.02
2022-09-01T02:21:15.048Z,15.85
2022-09-01T02:23:44.520Z,15.93
2022-09-01T02:26:16.577Z,15.88
2022-09-01T02:28:50.965Z,15.96
2022-09-01T02:31:22.965Z,16.00
2022-09-01T02:33:50.899Z,16.04
2022-09-01T02:38:53.639Z,15.93
2022-09-01T02:41:30.026Z,15.89
2022-09-01T02:44:02.288Z,15.77
2022-09-01T02:46:31.076Z,15.67
2022-09-01T02:49:00.499Z,15.73
2022-09-01T02:51:28.785Z,15.70
2022-09-01T02:53:56.648Z,15.51
2022-09-01T02:56:27.256Z,15.41
2022-09-01T02:58:55.551Z,15.50
2022-09-01T03:01:26.186Z,15.46
2022-09-01T03:03:56.364Z,15.53
2022-09-01T03:06:26.011Z,15.49
2022-09-01T03:09:00.329Z,15.50
2022-09-01T03:11:31.688Z,15.38
2022-09-01T03:14:00.220Z,15.37
2022-09-01T03:16:30.322Z,15.36
2022-09-01T03:18:59.164Z,15.39
2022-09-01T03:21:32.027Z,15.36
2022-09-01T03:24:02.144Z,15.29
2022-09-01T03:26:32.615Z,15.33
2022-09-01T03:29:00.561Z,15.34
2022-09-01T03:31:30.990Z,15.30
2022-09-01T03:34:00.638Z,15.31
2022-09-01T03:36:30.058Z,15.22
2022-09-01T03:38:58.687Z,15.16
2022-09-01T03:41:29.481Z,15.19
2022-09-01T03:44:03.423Z,15.24
2022-09-01T03:46:36.296Z,15.16
2022-09-01T03:49:07.557Z,15.25
2022-09-01T03:51:39.478Z,15.24
2022-09-01T03:54:07.918Z,15.28
2022-09-01T03:56:36.430Z,15.20
2022-09-01T03:59:07.609Z,15.17
2022-09-01T04:01:41.543Z,15.20
2022-09-01T04:04:09.524Z,15.22
2022-09-01T04:06:38.515Z,15.16
2022-09-01T04:09:06.586Z,15.22
2022-09-01T04:11:35.104Z,15.23
2022-09-01T04:14:03.235Z,15.20
2022-09-01T04:16:51.732Z,15.18
2022-09-01T04:19:25.886Z,15.06
2022-09-01T04:21:56.330Z,14.92
2022-09-01T04:24:28.230Z,14.99
2022-09-01T04:26:58.740Z,14.94
2022-09-01T04:29:28.159Z,14.91
2022-09-01T04:32:02.262Z,14.90
2022-09-01T04:34:37.487Z,14.97
2022-09-01T04:37:10.142Z,14.99
2022-09-01T04:39:39.240Z,15.04
2022-09-01T04:42:09.124Z,15.02
2022-09-01T04:44:37.949Z,15.03
2022-09-01T04:47:11.489Z,14.97
2022-09-01T04:49:39.433Z,15.05
2022-09-01T04:52:07.425Z,15.00
2022-09-01T04:54:37.507Z,14.99
2022-09-01T04:57:07.028Z,15.00
2022-09-01T04:59:35.815Z,14.94
2022-09-01T05:02:07.759Z,14.94
2022-09-01T05:04:46.345Z,14.98
2022-09-01T05:07:17.676Z,15.13
2022-09-01T05:09:45.884Z,15.21
2022-09-01T05:12:16.854Z,15.25
2022-09-01T05:14:48.634Z,15.28
2022-09-01T05:17:17.624Z,15.42
2022-09-01T05:19:51.193Z,15.49
2022-09-01T05:22:21.988Z,15.55
2022-09-01T05:24:51.418Z,15.49
2022-09-01T05:27:23.400Z,15.63
2022-09-01T05:29:51.290Z,15.68
2022-09-01T05:32:20.121Z,15.61
2022-09-01T05:34:51.834Z,15.54
2022-09-01T05:37:21.606Z,15.60
2022-09-01T05:39:50.331Z,15.64
2022-09-01T05:42:18.348Z,15.44
2022-09-01T05:44:47.932Z,15.52
2022-09-01T05:47:21.835Z,15.60
2022-09-01T05:49:53.501Z,15.60
2022-09-01T05:52:26.466Z,15.65
2022-09-01T05:54:55.847Z,15.83
2022-09-01T05:57:34.237Z,15.91
2022-09-01T06:00:02.745Z,16.14
2022-09-01T06:02:33.865Z,16.22
2022-09-01T06:05:03.202Z,16.41
2022-09-01T06:07:31.123Z,16.47
2022-09-01T06:10:29.669Z,16.58
2022-09-01T06:12:58.980Z,16.47
2022-09-01T06:15:29.471Z,16.73
2022-09-01T06:17:57.497Z,16.52
2022-09-01T06:20:27.503Z,16.75
2022-09-01T06:22:56.015Z,16.66
2022-09-01T06:25:26.442Z,16.69
2022-09-01T06:27:54.428Z,16.86
2022-09-01T06:30:24.428Z,16.94
2022-09-01T06:32:53.192Z,16.91
2022-09-01T06:35:22.148Z,17.13
2022-09-01T06:37:51.646Z,17.16
2022-09-01T06:40:19.485Z,17.21
2022-09-01T06:42:48.955Z,17.42
2022-09-01T06:45:18.857Z,17.48
2022-09-01T06:47:51.015Z,17.75
2022-09-01T06:55:59.722Z,17.73
2022-09-01T06:58:27.677Z,18.12
2022-09-01T07:00:55.695Z,18.05
2022-09-01T07:03:25.059Z,18.03
2022-09-01T07:06:09.561Z,18.15
2022-09-01T07:14:22.207Z,18.28
2022-09-01T07:16:53.344Z,18.24
2022-09-01T07:19:21.607Z,18.33
2022-09-01T07:24:40.258Z,18.44
2022-09-01T07:27:09.286Z,18.62
2022-09-01T07:29:39.348Z,18.80
2022-09-01T07:35:00.170Z,18.63
2022-09-01T07:43:17.727Z,19.08
2022-09-01T07:45:58.340Z,19.03
2022-09-01T07:54:07.130Z,19.85
2022-09-01T07:56:40.033Z,20.18
2022-09-01T07:59:09.528Z,20.49
2022-09-01T08:01:43.826Z,20.36
2022-09-01T08:04:12.148Z,20.39
2022-09-01T08:06:40.976Z,20.20
2022-09-01T08:09:11.860Z,20.45
2022-09-01T08:12:03.168Z,20.74
2022-09-01T08:14:35.035Z,20.35
2022-09-01T08:17:34.171Z,20.51
2022-09-01T08:22:23.335Z,20.91
2022-09-01T08:24:51.371Z,20.72
2022-09-01T08:27:20.887Z,21.00
2022-09-01T08:29:48.869Z,20.83
2022-09-01T08:32:16.836Z,20.71
2022-09-01T08:34:44.793Z,20.49
2022-09-01T08:37:13.173Z,20.74
2022-09-01T08:39:42.452Z,20.73
2022-09-01T08:42:20.762Z,20.96
2022-09-01T08:44:59.133Z,21.30
2022-09-01T08:47:35.559Z,21.10
2022-09-01T08:50:13.158Z,21.06
2022-09-01T08:52:44.910Z,21.62
2022-09-01T08:55:17.441Z,21.55
2022-09-01T08:57:50.103Z,21.81
2022-09-01T09:00:23.385Z,21.74
2022-09-01T09:03:06.163Z,21.89
2022-09-01T09:05:48.602Z,21.81
2022-09-01T09:09:03.580Z,22.06
2022-09-01T09:11:48.444Z,21.83
2022-09-01T09:14:29.274Z,22.15
2022-09-01T09:17:01.848Z,22.21
2022-09-01T09:19:32.388Z,22.16
2022-09-01T09:22:02.662Z,22.18
2022-09-01T09:24:47.588Z,21.96
2022-09-01T09:27:19.869Z,21.88
2022-09-01T09:29:51.030Z,21.86
2022-09-01T09:32:28.112Z,21.83
2022-09-01T09:35:19.938Z,22.04
2022-09-01T09:37:48.275Z,22.09
2022-09-01T09:40:18.933Z,21.90
2022-09-01T09:43:04.426Z,21.75
2022-09-01T09:45:34.752Z,21.76
2022-09-01T09:48:07.882Z,21.69
2022-09-01T09:50:40.834Z,21.73
2022-09-01T09:53:19.549Z,21.90
2022-09-01T09:55:56.222Z,21.85
2022-09-01T09:58:28.130Z,22.19
2022-09-01T10:01:03.732Z,22.34
2022-09-01T10:03:43.058Z,22.32
2022-09-01T10:06:17.662Z,22.28
2022-09-01T10:08:53.185Z,22.65
2022-09-01T10:11:35.354Z,22.69
2022-09-01T10:14:07.106Z,22.46
2022-09-01T10:16:39.828Z,22.38
2022-09-01T10:19:13.894Z,22.46
2022-09-01T10:21:46.238Z,22.72
2022-09-01T10:24:21.555Z,22.44
2022-09-01T10:26:54.546Z,22.39
2022-09-01T10:29:27.404Z,22.40
2022-09-01T10:32:28.021Z,22.27
2022-09-01T10:34:47.436Z,22.51
2022-09-01T10:37:16.298Z,22.69
2022-09-01T10:40:21.459Z,22.83
2022-09-01T10:42:57.340Z,22.99
2022-09-01T10:45:34.090Z,22.98
2022-09-01T10:48:46.269Z,23.20
2022-09-01T10:51:51.506Z,23.34
2022-09-01T10:54:52.738Z,23.21
2022-09-01T10:57:42.376Z,23.80
2022-09-01T11:04:04.163Z,24.37
2022-09-01T11:06:34.712Z,24.54
2022-09-01T11:09:07.662Z,24.19
2022-09-01T11:11:42.559Z,23.94
2022-09-01T11:14:19.849Z,24.29
2022-09-01T11:17:15.552Z,24.36
2022-09-01T11:19:46.703Z,24.44
2022-09-01T11:22:38.070Z,24.85
2022-09-01T11:25:15.111Z,24.80
2022-09-01T11:28:04.139Z,24.91
2022-09-01T11:30:41.760Z,25.20
2022-09-01T11:33:20.855Z,25.03
2022-09-01T11:35:49.103Z,24.69
2022-09-01T11:38:20.630Z,24.81
2022-09-01T11:40:57.144Z,24.59
2022-09-01T11:43:27.433Z,24.23
2022-09-01T11:46:08.158Z,24.54
2022-09-01T11:48:37.535Z,24.71
2022-09-01T11:51:05.842Z,24.75
2022-09-01T11:53:33.838Z,24.55
2022-09-01T11:56:18.145Z,24.83
2022-09-01T11:58:46.091Z,25.08
2022-09-01T12:01:17.254Z,24.79
2022-09-01T12:03:47.019Z,24.76
2022-09-01T12:06:23.469Z,25.13
2022-09-01T12:08:58.174Z,25.61
2022-09-01T12:11:31.341Z,25.94
2022-09-01T12:14:02.497Z,25.72
2022-09-01T12:16:36.755Z,25.56
2022-09-01T12:19:06.588Z,25.67
2022-09-01T12:21:38.279Z,25.83
2022-09-01T12:24:17.013Z,25.94
2022-09-01T12:26:47.957Z,25.61
2022-09-01T12:29:16.944Z,25.37
2022-09-01T12:31:47.089Z,25.29
2022-09-01T12:34:29.506Z,25.22
2022-09-01T12:37:09.326Z,25.14
2022-09-01T12:39:40.082Z,25.46
2022-09-01T12:42:25.307Z,25.58
2022-09-01T12:44:56.073Z,25.74
2022-09-01T12:47:50.940Z,26.52
2022-09-01T12:50:44.122Z,26.57
2022-09-01T12:53:20.477Z,26.29
2022-09-01T12:56:17.738Z,26.07
2022-09-01T12:58:54.669Z,25.74
2022-09-01T13:01:29.553Z,25.83
2022-09-01T13:04:16.560Z,25.30
2022-09-01T13:06:44.415Z,25.55
2022-09-01T13:09:12.329Z,25.75
2022-09-01T13:14:31.627Z,25.73
2022-09-01T13:16:59.896Z,25.86
2022-09-01T13:19:30.230Z,26.25
2022-09-01T13:21:58.693Z,26.15
2022-09-01T13:24:30.253Z,25.94
2022-09-01T13:29:48.965Z,25.93
2022-09-01T13:32:20.493Z,26.04
2022-09-01T13:34:54.739Z,26.46
2022-09-01T13:37:24.488Z,26.98
2022-09-01T13:39:52.695Z,27.24
2022-09-01T13:42:21.211Z,27.19
2022-09-01T13:44:54.119Z,27.02
2022-09-01T13:47:31.840Z,26.84
2022-09-01T13:50:10.778Z,26.73
2022-09-01T13:52:41.240Z,26.82
2022-09-01T13:55:11.825Z,26.68
2022-09-01T13:57:39.984Z,27.22
2022-09-01T14:00:12.313Z,27.49
2022-09-01T14:02:42.998Z,27.64
2022-09-01T14:05:11.609Z,27.79
2022-09-01T14:07:39.594Z,27.63
2022-09-01T14:10:08.899Z,27.51
2022-09-01T14:12:37.469Z,26.55
2022-09-01T14:15:17.026Z,26.91
2022-09-01T14:17:49.738Z,28.20
2022-09-01T14:20:21.124Z,28.04
2022-09-01T14:22:50.844Z,27.26
2022-09-01T14:25:20.158Z,27.18
2022-09-01T14:27:49.658Z,27.32
2022-09-01T14:30:20.987Z,26.94
2022-09-01T14:32:54.257Z,26.91
2022-09-01T14:35:28.804Z,26.54
2022-09-01T14:37:58.970Z,26.29
2022-09-01T14:40:29.394Z,26.00
2022-09-01T14:42:57.823Z,26.15
2022-09-01T14:45:28.778Z,26.53
2022-09-01T14:48:01.584Z,28.50
2022-09-01T14:50:32.575Z,32.17
2022-09-01T14:53:02.650Z,34.47
2022-09-01T14:55:32.670Z,35.55
2022-09-01T14:58:01.393Z,34.49
2022-09-01T15:00:31.711Z,36.55
2022-09-01T15:03:01.176Z,36.55
2022-09-01T15:05:29.292Z,34.51
2022-09-01T15:08:08.592Z,34.12
2022-09-01T15:10:36.767Z,35.64
2022-09-01T15:13:05.219Z,35.50
2022-09-01T15:15:33.802Z,35.53
2022-09-01T15:18:03.172Z,35.37
2022-09-01T15:20:46.414Z,34.61
2022-09-01T15:23:16.371Z,35.27
2022-09-01T15:25:44.706Z,35.37
2022-09-01T15:28:13.421Z,34.18
2022-09-01T15:30:43.977Z,34.51
2022-09-01T15:33:15.739Z,32.55
2022-09-01T15:35:44.938Z,29.89
2022-09-01T15:38:17.947Z,27.57
2022-09-01T15:40:55.462Z,27.22
2022-09-01T15:43:27.435Z,26.81
2022-09-01T15:45:58.369Z,26.66
2022-09-01T15:48:29.630Z,26.33
2022-09-01T15:51:27.899Z,26.17
2022-09-01T15:53:58.712Z,25.99
2022-09-01T15:56:27.099Z,25.92
2022-09-01T15:59:02.657Z,25.74
2022-09-01T16:01:32.671Z,25.87
2022-09-01T16:04:02.343Z,25.93
2022-09-01T16:06:31.503Z,25.76
2022-09-01T16:08:59.649Z,25.90
2022-09-01T16:11:28.045Z,25.86
2022-09-01T16:13:57.012Z,25.90
2022-09-01T16:16:42.031Z,26.19
2022-09-01T16:19:25.124Z,26.21
2022-09-01T16:21:59.123Z,26.30
2022-09-01T16:24:27.501Z,26.45
2022-09-01T16:26:58.091Z,26.51
2022-09-01T16:29:35.517Z,26.77
2022-09-01T16:32:03.830Z,26.72
2022-09-01T16:34:34.710Z,26.55
2022-09-01T16:37:08.476Z,26.00
2022-09-01T16:39:42.444Z,25.62
2022-09-01T16:42:22.296Z,25.46
2022-09-01T16:45:01.175Z,25.36
2022-09-01T16:47:41.879Z,25.15
2022-09-01T16:50:20.584Z,25.06
2022-09-01T16:53:05.668Z,25.13
2022-09-01T16:55:42.149Z,24.98
2022-09-01T16:58:21.489Z,24.97
2022-09-01T17:01:02.195Z,25.03
2022-09-01T17:03:43.115Z,24.93
2022-09-01T17:06:21.835Z,24.93
2022-09-01T17:08:54.926Z,24.85
2022-09-01T17:11:34.030Z,24.83
2022-09-01T17:14:04.149Z,24.77
2022-09-01T17:16:37.220Z,24.69
2022-09-01T17:19:07.944Z,24.61
2022-09-01T17:21:45.972Z,24.56
2022-09-01T17:24:30.207Z,24.44
2022-09-01T17:27:07.883Z,24.30
2022-09-01T17:29:44.963Z,24.20
2022-09-01T17:32:35.822Z,24.11
2022-09-01T17:35:15.091Z,24.08
2022-09-01T17:38:03.776Z,23.85
2022-09-01T17:40:50.358Z,23.72
2022-09-01T17:43:26.670Z,23.60
2022-09-01T17:46:04.419Z,23.46
2022-09-01T17:48:40.913Z,23.27
2022-09-01T17:51:13.832Z,23.16
2022-09-01T17:53:52.976Z,22.95
2022-09-01T17:56:34.827Z,22.64
2022-09-01T17:59:11.545Z,22.43
2022-09-01T18:01:47.204Z,22.30
2022-09-01T18:04:36.089Z,22.18
2022-09-01T18:07:10.894Z,22.17
2022-09-01T18:09:44.477Z,21.98
2022-09-01T18:12:18.632Z,21.84
2022-09-01T18:14:57.810Z,21.64
2022-09-01T18:17:31.421Z,21.64
2022-09-01T18:20:08.037Z,21.69
2022-09-01T18:22:43.086Z,21.54
2022-09-01T18:25:19.473Z,21.48
2022-09-01T18:27:48.038Z,21.22
2022-09-01T18:30:26.185Z,21.03
2022-09-01T18:33:15.010Z,20.89
2022-09-01T18:35:47.921Z,20.71
2022-09-01T18:38:35.484Z,20.57
2022-09-01T18:41:16.649Z,20.51
2022-09-01T18:43:49.739Z,20.39
2022-09-01T18:46:24.055Z,20.28
2022-09-01T18:49:03.412Z,20.17
2022-09-01T18:51:47.696Z,20.07
2022-09-01T18:54:19.627Z,20.02
2022-09-01T18:56:56.318Z,19.89
2022-09-01T18:59:40.290Z,19.71
2022-09-01T19:02:23.798Z,19.74
2022-09-01T19:04:58.353Z,19.68
2022-09-01T19:07:36.822Z,19.67
2022-09-01T19:10:16.291Z,19.88
2022-09-01T19:12:55.021Z,19.99
2022-09-01T19:15:33.122Z,20.01
2022-09-01T19:18:16.267Z,20.06
2022-09-01T19:20:51.262Z,20.07
2022-09-01T19:23:26.699Z,19.98
2022-09-01T19:26:03.192Z,19.68
2022-09-01T19:28:43.407Z,19.42
2022-09-01T19:31:27.073Z,19.27
2022-09-01T19:33:57.541Z,19.16
2022-09-01T19:36:34.522Z,19.03
2022-09-01T19:39:02.498Z,18.94
2022-09-01T19:41:35.753Z,18.97
2022-09-01T19:44:12.810Z,18.98
2022-09-01T19:46:47.051Z,19.03
2022-09-01T19:49:24.694Z,19.03
2022-09-01T19:51:58.430Z,18.91
2022-09-01T19:54:34.880Z,18.89
2022-09-01T19:57:07.767Z,18.86
2022-09-01T19:59:48.472Z,18.84
2022-09-01T20:02:27.815Z,18.71
2022-09-01T20:05:04.343Z,18.66
2022-09-01T20:07:37.740Z,18.57
2022-09-01T20:10:20.031Z,18.61
2022-09-01T20:12:55.238Z,18.54
2022-09-01T20:15:32.077Z,18.47
2022-09-01T20:18:04.927Z,18.42
2022-09-01T20:20:40.107Z,18.43
2022-09-01T20:23:12.953Z,18.42
2022-09-01T20:25:47.373Z,18.31
2022-09-01T20:28:28.362Z,18.29
2022-09-01T20:31:03.108Z,18.12
2022-09-01T20:33:38.177Z,18.23
2022-09-01T20:36:12.050Z,18.35
2022-09-01T20:39:05.587Z,18.37
2022-09-01T20:41:39.823Z,18.25
2022-09-01T20:44:13.545Z,18.26
2022-09-01T20:46:42.954Z,18.28
2022-09-01T20:49:17.039Z,18.45
2022-09-01T20:51:53.128Z,18.45
2022-09-01T20:54:30.828Z,18.44
2022-09-01T20:57:09.775Z,18.41
2022-09-01T20:59:46.365Z,18.40
2022-09-01T21:02:29.622Z,18.49
2022-09-01T21:05:06.399Z,18.57
2022-09-01T21:07:38.033Z,18.72
2022-09-01T21:10:13.085Z,18.76
2022-09-01T21:12:51.719Z,18.78
2022-09-01T21:15:30.908Z,18.86
2022-09-01T21:18:12.993Z,18.93
2022-09-01T21:20:57.595Z,18.88
2022-09-01T21:23:26.375Z,18.85
2022-09-01T21:25:54.453Z,18.91
2022-09-01T21:28:26.372Z,19.01
2022-09-01T21:30:57.140Z,19.08
2022-09-01T21:33:30.145Z,19.09
2022-09-01T21:35:58.876Z,19.11
2022-09-01T21:38:27.167Z,19.02
2022-09-01T21:40:55.653Z,18.99
2022-09-01T21:43:28.252Z,19.05
2022-09-01T21:45:56.390Z,19.09
2022-09-01T21:48:26.416Z,19.10
2022-09-01T21:50:54.416Z,19.03
2022-09-01T21:53:22.409Z,19.10
2022-09-01T21:55:50.346Z,18.99
2022-09-01T21:58:18.681Z,18.98
2022-09-01T22:00:48.321Z,18.92
2022-09-01T22:03:16.618Z,18.90
2022-09-01T22:05:45.936Z,18.81
2022-09-01T22:08:17.142Z,18.62
2022-09-01T22:10:48.630Z,18.65
2022-09-01T22:13:17.465Z,18.67
2022-09-01T22:15:47.184Z,18.55
2022-09-01T22:18:15.837Z,18.30
2022-09-01T22:20:46.191Z,18.15
2022-09-01T22:23:15.193Z,18.04
2022-09-01T22:25:45.494Z,18.02
2022-09-01T22:28:14.335Z,17.96
2022-09-01T22:30:46.460Z,17.86
2022-09-01T22:33:15.698Z,17.76
2022-09-01T22:35:47.433Z,17.67
2022-09-01T22:38:17.190Z,17.58
2022-09-01T22:40:47.020Z,17.45
2022-09-01T22:43:18.094Z,17.40
2022-09-01T22:45:55.208Z,17.22
2022-09-01T22:48:26.971Z,17.20
2022-09-01T22:51:34.007Z,17.27
2022-09-01T22:54:03.718Z,17.26
2022-09-01T22:56:34.140Z,17.22
2022-09-01T22:59:04.434Z,17.19
2022-09-01T23:01:36.230Z,17.14
2022-09-01T23:04:06.542Z,16.99
2022-09-01T23:06:39.781Z,16.95
2022-09-01T23:09:10.156Z,16.87
2022-09-01T23:11:38.459Z,16.90
2022-09-01T23:14:06.736Z,16.77
2022-09-01T23:16:35.193Z,16.84
2022-09-01T23:19:05.820Z,16.73
2022-09-01T23:21:37.334Z,16.78
2022-09-01T23:24:06.574Z,16.78
2022-09-01T23:26:34.911Z,16.90
2022-09-01T23:29:04.211Z,16.88
2022-09-01T23:31:34.650Z,16.79
2022-09-01T23:34:02.849Z,16.79
2022-09-01T23:36:31.045Z,16.67
2022-09-01T23:39:00.631Z,16.75
2022-09-01T23:41:32.289Z,16.73
2022-09-01T23:44:02.810Z,16.63
2022-09-01T23:46:32.650Z,16.70
2022-09-01T23:49:00.851Z,16.70
2022-09-01T23:51:29.095Z,16.71
2022-09-01T23:53:57.732Z,16.83
2022-09-01T23:56:29.160Z,16.82
2022-09-01T23:58:57.703Z,16.80
